• Join FlightAware (Why Join?)
  • Login
  • US Flag 
03:19AM EST


 

Airport Tracker/Info


-or-


 

Live Flight TrackerFlight Track Log ✈ FDY2407 ✈ 19-May-2013 ✈ KVCT - KIAH

Flight Track Log - Related Links

Times and Time Zones

All times are in EDT time to prevent confusion due to time zone crossing. See the FDY2407 flight status page for this flight to view local times or setup timezone preferences in your user account.

Time Position Orientation Groundspeed Altitude Reporting Facility
EDT Latitude Longitude Course Direction KTS MPH feet Rate Location/Type
05:56PM 28.9342 -96.8217 41° Northeast 137 158 3,200  Level Houston Center
05:57PM 28.9644 -96.7894 43° Northeast 143 165 3,900 720 Climbing Houston Center
05:58PM 28.9961 -96.7553 43° Northeast 149 171 4,700 480 Climbing Houston Center
05:59PM 29.0289 -96.7183 45° Northeast 161 185 5,000 240 Climbing Houston Center
06:00PM 29.0686 -96.6739 44° Northeast 190 219 5,200  Climbing Houston Center
06:01PM 29.1178 -96.6225 42° Northeast 200 230 5,100 -60 Descending Houston Center
06:02PM 29.0030 -96.7469 41° Northeast  Level FlightAware Approximate
06:02PM 29.1581 -96.5811 42° Northeast 198 228 5,100  Level Houston Center
06:03PM 29.1981 -96.5389 43° Northeast 197 227 5,100  Level Houston Center
06:04PM 29.2372 -96.4972 43° Northeast 194 223 5,100  Level Houston Center
06:06PM 29.2761 -96.4553 43° Northeast 193 222 5,100  Level Houston Center
06:07PM 29.3231 -96.4047 43° Northeast 194 223 5,100  Level Houston Center
06:08PM 29.3633 -96.3642 41° Northeast 194 223 5,100  Level Houston Center
06:09PM 29.4075 -96.3186 42° Northeast 193 222 5,100 -60 Level Houston Center
06:10PM 29.4497 -96.2733 43° Northeast 197 227 5,000 -60 Descending Houston Center
06:11PM 29.4825 -96.2369 44° Northeast 196 226 5,000  Level Houston Center
06:12PM 29.5306 -96.1875 42° Northeast 206 237 5,000  Level Houston Center
06:13PM 29.5619 -96.1383 54° Northeast 179 206 5,000  Level Houston Center
06:14PM 29.5886 -96.0825 61° Northeast 182 209 5,100  Climbing Houston Center
06:15PM 29.6158 -96.0314 58° Northeast 192 221 5,000 -60 Descending Houston Center
06:16PM 29.6394 -95.9850 60° Northeast 192 221 5,000  Level Houston Center
06:17PM 29.6694 -95.9244 60° Northeast 189 217 5,000  Level Houston Center
06:18PM 29.7003 -95.8681 58° Northeast 192 221 5,100  Climbing Houston Center
06:19PM 29.7289 -95.8119 60° Northeast 189 217 5,000 -60 Descending Houston Center
06:20PM 29.7525 -95.7653 60° Northeast 186 214 5,000  Level Houston Center
06:21PM 29.7822 -95.7044 61° Northeast 185 213 5,000 -360 Level Houston Center
06:22PM 29.8111 -95.6506 58° Northeast 197 227 4,300 -720 Descending Houston Center
06:23PM 29.8419 -95.5886 60° Northeast 209 241 3,600 -660 Descending Houston Center
06:24PM 29.8719 -95.5350 57° Northeast 212 244 3,000 -600 Descending Houston Center
06:25PM 29.9089 -95.4778 53° Northeast 204 235 2,500 -540 Descending Houston Center
06:26PM 29.9428 -95.4275 52° Northeast 205 236 1,900 -600 Descending Houston Center
06:27PM 29.9717 -95.3833 53° Northeast 167 192 1,300 -660 Descending Houston Center
06:28PM 29.9781 -95.3475 78° East 142 163 600 -660 Descending Houston Center
06:30PM 29.9833 -95.3333 49° Northeast  Level FlightAware Approximate